Weather History for Tunica, MS

Change the Weather History Date:

Friday, February 15, 2013

  Actual Average (KMEM) Record (KMEM)
Temperature  
Mean Temperature 44 °F 46 °F  
Max Temperature 51 °F 55 °F 77 °F (1990)
Min Temperature 37 °F 36 °F 11 °F (1905)
Degree Days  
Heating Degree Days 21 20  
Month to date heating degree days 319  
Since 1 July heating degree days 2221  
Cooling Degree Days 0 0  
Month to date cooling degree days 0  
Year to date cooling degree days 1  
Moisture  
Dew Point 33 °F    
Average Humidity 67    
Maximum Humidity 93    
Minimum Humidity 47    
Precipitation  
Precipitation 0.00 in 0.16 in 3.17 in (1873)
Month to date precipitation 2.30  
Year to date precipitation 6.28  
Snow  
Snow 0.00 in 0.00 in 1.90 in (1958)
Month to date snowfall 0.8  
Since 1 July snowfall 2.9  
Snow Depth -    
Sea Level Pressure  
Sea Level Pressure 30.18 in    
Wind  
Wind Speed 8 mph (NNW)    
Max Wind Speed 15 mph    
Max Gust Speed 24 mph    
Visibility 10 miles    
Events      
T = Trace of Precipitation, MM = Missing Value Source: NWS Daily Summary

Daily Weather History Graph

Daily Weather History Graph

Search for Another Location

Airport:

Trip Planner

Search our weather history database for the weather conditions in past years. The results will help you decide how hot, cold, wet, or windy it might be!

Date:

Astronomy

Feb. 15, 2013 Rise Set
Actual Time 6:46 AM CST 5:44 PM CST
Civil Twilight 6:20 AM CST 6:10 PM CST
Nautical Twilight 5:51 AM CST 6:40 PM CST
Astronomical Twilight 5:22 AM CST 7:09 PM CST
Moon 9:39 AM CST (2/15) 11:28 PM CST (2/15)
Length of Visible Light 11h 49m
Length of Day
10h 58m
Waxing Crescent, 30% of the Moon is Illuminated
Feb 15
Waxing Crescent
Feb 17
First Quarter
Feb 25
Full
Mar 4
Last Quarter
Mar 11
New

Hourly Weather History & Observations

Time (CST) Temp. Windchill Dew Point Humidity Pressure Visibility Wind Dir Wind Speed Gust Speed Precip Events Conditions
12:15 AM 42.8 °F 41.1 °F 39.2 °F 87% 30.08 in 10.0 mi South 3.5 mph - N/A   Scattered Clouds
12:35 AM 41.0 °F 39.0 °F 37.4 °F 87% 30.09 in 10.0 mi NW 3.5 mph - N/A   Clear
12:55 AM 41.0 °F 39.0 °F 37.4 °F 87% 30.09 in 10.0 mi NW 3.5 mph - N/A   Clear
1:15 AM 41.0 °F - 37.4 °F 87% 30.08 in 10.0 mi Calm Calm - N/A   Clear
1:35 AM 41.0 °F 39.0 °F 37.4 °F 87% 30.08 in 10.0 mi SW 3.5 mph - N/A   Clear
1:55 AM 37.4 °F - 35.6 °F 93% 30.10 in 10.0 mi Calm Calm - N/A   Clear
2:15 AM 41.0 °F - 37.4 °F 87% 30.09 in 10.0 mi Calm Calm - N/A   Clear
2:35 AM 39.2 °F - 37.4 °F 93% 30.10 in 10.0 mi Calm Calm - N/A   Clear
2:55 AM 39.2 °F 35.0 °F 37.4 °F 93% 30.11 in 10.0 mi WNW 5.8 mph - N/A   Clear
3:15 AM 41.0 °F 35.2 °F 33.8 °F 76% 30.11 in 10.0 mi NNW 9.2 mph - N/A   Clear
3:35 AM 41.0 °F 36.4 °F 33.8 °F 76% 30.11 in 10.0 mi NNW 6.9 mph - N/A   Clear
3:55 AM 41.0 °F 36.4 °F 33.8 °F 76% 30.12 in 10.0 mi NNW 6.9 mph - N/A   Clear
4:15 AM 42.8 °F 37.5 °F 35.6 °F 76% 30.13 in 10.0 mi NNW 9.2 mph - N/A   Clear
4:35 AM 42.8 °F 37.0 °F 35.6 °F 76% 30.14 in 10.0 mi NNW 10.4 mph - N/A   Clear
4:55 AM 42.8 °F 36.6 °F 35.6 °F 76% 30.15 in 10.0 mi NNW 11.5 mph - N/A   Clear
5:15 AM 42.8 °F 37.0 °F 33.8 °F 70% 30.16 in 10.0 mi NNW 10.4 mph - N/A   Clear
5:35 AM 42.8 °F 37.0 °F 33.8 °F 70% 30.16 in 10.0 mi NNW 10.4 mph - N/A   Clear
5:55 AM 42.8 °F 37.5 °F 33.8 °F 70% 30.16 in 10.0 mi NNW 9.2 mph - N/A   Clear
6:15 AM 41.0 °F 35.2 °F 33.8 °F 76% 30.17 in 10.0 mi NNW 9.2 mph - N/A   Clear
6:35 AM 41.0 °F 36.4 °F 33.8 °F 76% 30.17 in 10.0 mi NNW 6.9 mph - N/A   Clear
6:55 AM 39.2 °F 35.0 °F 33.8 °F 81% 30.18 in 10.0 mi NNW 5.8 mph - N/A   Clear
7:15 AM 41.0 °F 37.1 °F 35.6 °F 81% 30.18 in 10.0 mi NNW 5.8 mph - N/A   Scattered Clouds
7:35 AM 42.8 °F 37.0 °F 35.6 °F 76% 30.20 in 10.0 mi NNW 10.4 mph - N/A   Mostly Cloudy
7:55 AM 44.6 °F 38.8 °F 35.6 °F 71% 30.20 in 10.0 mi NNW 11.5 mph 18.4 mph N/A   Mostly Cloudy
8:15 AM 44.6 °F 38.4 °F 37.4 °F 76% 30.21 in 10.0 mi NNW 12.7 mph 17.3 mph N/A   Light Drizzle
8:35 AM 44.6 °F 39.2 °F 37.4 °F 76% 30.21 in 10.0 mi NNW 10.4 mph - N/A   Scattered Clouds
8:55 AM 44.6 °F 40.7 °F 37.4 °F 76% 30.21 in 10.0 mi North 6.9 mph - N/A   Clear
9:15 AM 46.4 °F 42.9 °F 39.2 °F 76% 30.21 in 10.0 mi NNW 6.9 mph - N/A   Clear
9:35 AM 46.4 °F 42.9 °F 39.2 °F 76% 30.22 in 10.0 mi NNW 6.9 mph - N/A   Clear
9:55 AM 50.0 °F - 39.2 °F 66% 30.22 in 10.0 mi NNW 8.1 mph - N/A   Clear
10:15 AM 50.0 °F - 37.4 °F 62% 30.22 in 10.0 mi North 11.5 mph - N/A   Clear
10:35 AM 50.0 °F - 35.6 °F 58% 30.22 in 10.0 mi North 12.7 mph - N/A   Clear
10:55 AM 51.8 °F - 37.4 °F 58% 30.21 in 10.0 mi NNW 13.8 mph - N/A   Clear
11:15 AM 51.8 °F - 35.6 °F 54% 30.22 in 10.0 mi NNW 13.8 mph - N/A   Clear
11:35 AM 51.8 °F - 33.8 °F 50% 30.21 in 10.0 mi NNW 13.8 mph - N/A   Clear
11:55 AM 51.8 °F - 32.0 °F 47% 30.21 in 10.0 mi North 15.0 mph 21.9 mph N/A   Scattered Clouds
12:15 PM 51.8 °F - 32.0 °F 47% 30.20 in 10.0 mi NNW 13.8 mph 20.7 mph N/A   Scattered Clouds
12:35 PM 51.8 °F - 32.0 °F 47% 30.20 in 10.0 mi North 12.7 mph - N/A   Scattered Clouds
12:55 PM 51.8 °F - 32.0 °F 47% 30.19 in 10.0 mi NNW 10.4 mph - N/A   Scattered Clouds
1:15 PM 51.8 °F - 32.0 °F 47% 30.19 in 7.0 mi North 15.0 mph - N/A   Scattered Clouds
1:35 PM 51.8 °F - 32.0 °F 47% 30.18 in 10.0 mi North 11.5 mph 20.7 mph N/A   Scattered Clouds
1:55 PM 51.8 °F - 32.0 °F 47% 30.18 in 10.0 mi NNW 12.7 mph - N/A   Scattered Clouds
2:15 PM 51.8 °F - 32.0 °F 47% 30.18 in 10.0 mi NW 15.0 mph 19.6 mph N/A   Scattered Clouds
2:35 PM 51.8 °F - 32.0 °F 47% 30.18 in 10.0 mi NW 15.0 mph 24.2 mph N/A   Scattered Clouds
2:55 PM 51.8 °F - 32.0 °F 47% 30.18 in 10.0 mi North 10.4 mph 20.7 mph N/A   Scattered Clouds
3:15 PM 50.0 °F - 32.0 °F 50% 30.18 in 10.0 mi North 13.8 mph 18.4 mph N/A   Scattered Clouds
3:35 PM 50.0 °F - 32.0 °F 50% 30.18 in 10.0 mi NNW 15.0 mph - N/A   Mostly Cloudy
3:55 PM 50.0 °F - 30.2 °F 47% 30.18 in 10.0 mi WNW 10.4 mph - N/A   Scattered Clouds
4:15 PM 48.2 °F - 32.0 °F 54% 30.18 in 10.0 mi North 15.0 mph - N/A   Scattered Clouds
4:35 PM 48.2 °F - 32.0 °F 54% 30.18 in 10.0 mi North 12.7 mph 18.4 mph N/A   Scattered Clouds
4:55 PM 48.2 °F - 32.0 °F 54% 30.19 in 10.0 mi NNW 15.0 mph - N/A   Scattered Clouds
5:15 PM 46.4 °F 40.4 °F 32.0 °F 57% 30.19 in 10.0 mi North 13.8 mph - N/A   Scattered Clouds
5:35 PM 44.6 °F 39.2 °F 32.0 °F 61% 30.19 in 10.0 mi NNW 10.4 mph - N/A   Scattered Clouds
5:55 PM 42.8 °F 36.6 °F 32.0 °F 66% 30.20 in 10.0 mi NNW 11.5 mph - N/A   Clear
6:15 PM 42.8 °F 37.0 °F 32.0 °F 66% 30.21 in 10.0 mi NNW 10.4 mph - N/A   Clear
6:35 PM 42.8 °F 37.0 °F 32.0 °F 66% 30.21 in 10.0 mi NNW 10.4 mph - N/A   Clear
6:55 PM 42.8 °F 37.5 °F 32.0 °F 66% 30.22 in 10.0 mi NNW 9.2 mph - N/A   Clear
7:15 PM 39.2 °F 34.2 °F 32.0 °F 75% 30.23 in 10.0 mi NNW 6.9 mph - N/A   Clear
7:35 PM 39.2 °F 34.2 °F 30.2 °F 70% 30.22 in 10.0 mi NNW 6.9 mph - N/A   Clear
7:55 PM 39.2 °F 33.6 °F 30.2 °F 70% 30.23 in 10.0 mi NNW 8.1 mph - N/A   Clear
8:15 PM 41.0 °F 36.4 °F 30.2 °F 65% 30.23 in 10.0 mi NW 6.9 mph - N/A   Clear
8:35 PM 39.2 °F 33.6 °F 30.2 °F 70% 30.23 in 10.0 mi NW 8.1 mph - N/A   Clear
8:55 PM 39.2 °F 32.5 °F 30.2 °F 70% 30.23 in 10.0 mi NNW 10.4 mph - N/A   Clear
9:15 PM 39.2 °F 32.5 °F 28.4 °F 65% 30.23 in 10.0 mi NW 10.4 mph - N/A   Clear
9:35 PM 39.2 °F 32.5 °F 28.4 °F 65% 30.23 in 10.0 mi NW 10.4 mph - N/A   Clear
9:55 PM 39.2 °F 32.5 °F 28.4 °F 65% 30.24 in 10.0 mi NW 10.4 mph - N/A   Clear
10:15 PM 39.2 °F 32.5 °F 28.4 °F 65% 30.24 in 10.0 mi NW 10.4 mph - N/A   Scattered Clouds
10:35 PM 39.2 °F 32.0 °F 26.6 °F 61% 30.23 in 10.0 mi NNW 11.5 mph - N/A   Mostly Cloudy
10:55 PM 39.2 °F 31.2 °F 26.6 °F 61% 30.23 in 10.0 mi NNW 13.8 mph - N/A   Scattered Clouds
11:15 PM 39.2 °F 32.0 °F 26.6 °F 61% 30.23 in 10.0 mi NNW 11.5 mph - N/A   Mostly Cloudy
11:35 PM 37.4 °F 29.8 °F 26.6 °F 65% 30.23 in 10.0 mi NNW 11.5 mph - N/A   Scattered Clouds
11:55 PM 37.4 °F 30.3 °F 26.6 °F 65% 30.23 in 10.0 mi NW 10.4 mph - N/A   Scattered Clouds